Αναφορές METAR από Ελληνικά Αεροδρόμια

Σε αυτή τη σελίδα, μπορείτε να παρακολουθείτε τις αναφορές METAR που προέρχονται από τα κυριότερα αεροδρόμια της Ελλάδας. Το περιεχόμενο αποκωδικοποιείται, οπτικοποιείται και γίνεται κατανοητό από τον καθένα με τη χρήση του όμορφου δίγλωσσου γραφικού περιβάλλοντος του meteothes.gr!

Η αρχική κωδικοποιημένη αναφορά, συμπεριλαμβάνεται επίσης στο κάτω μέρος. Σε όποια καθεστερεί η ενημέρωση, το προειδοποιητικό μήνυμα "Μη ενημερωμένο METAR!" εμφανίζεται στο πάνω μέρος της με κόκκινα γράμματα.

Εχουν προστεθεί επίσης δύο αεροδρόμια από γειτονικές χώρες, την Οχρίδα(ΠΓΔΜ) και την Σόφια(Βουλγαρία) για να ελέγχουμε την εξέλιξη των ψυχρών εισβολών από τα Βόρεια!

LGTS - Thessaloniki/Makedonia-Elev 7m
Απόσταση από meteothes.gr: Ν 13km
Ενημερώθηκε: 26/01/2021 10:50
Μερικώς νεφελώδης
Μερικώς νεφελώδης
 Ανεμος από ΑΝΑ
Ανεμος: ΑΝΑ 22 km/h
Θερμοκρασία: 15°C
Σημ. Δρόσου: 6°C
Υγρασία: 55%
Βαρόμετρο: 1003 hPa
Νέφωση: Μερικώς νεφελώδης
Ορατότητα: 10 km
Λεπτομέρειες Νεφών: Μερικώς νεφελώδης 762 m
2021/01/26 08:50 LGTS 260850Z 12012KT 9999 SCT025 15/06 Q1003 NOSIG
LGAV - Athens/Elef. Venizelos-Elev 94m
Απόσταση από meteothes.gr: ΝΝΑ 312km
Ενημερώθηκε: 26/01/2021 10:50
Κυρίως νεφελώδης
Κυρίως νεφελώδης
 Ανεμος από ΝΝΔ
Ανεμος: ΝΝΔ 31 km/h
Θερμοκρασία: 15°C
Σημ. Δρόσου: 10°C
Υγρασία: 72%
Βαρόμετρο: 1008 hPa
Νέφωση: Κυρίως νεφελώδης
Ορατότητα: 10 km
Λεπτομέρειες Νεφών: Μερικώς νεφελώδης 762 m
Κυρίως νεφελώδης 2134 m
2021/01/26 08:50 LGAV 260850Z 20017KT 9999 SCT025 BKN070 15/10 Q1008 NOSIG
 
LGAL - Alexandroupolis-Elev 3m
Απόσταση από meteothes.gr: Α 251km
Ενημερώθηκε: 26/01/2021 10:50
Μερικώς νεφελώδης
Μερικώς νεφελώδης
 Ανεμος από ΝΝΔ
Ανεμος: ΝΝΔ 19 km/h
Θερμοκρασία: 14°C
Σημ. Δρόσου: 9°C
Υγρασία: 72%
Βαρόμετρο: 1005 hPa
Νέφωση: Μερικώς νεφελώδης
Ορατότητα: 10 km
Λεπτομέρειες Νεφών: Διάσπαρτα Nέφη 610 m
Μερικώς νεφελώδης 914 m
2021/01/26 08:50 LGAL 260850Z 21010KT 9999 FEW020 SCT030 14/09 Q1005
LGKV - Kavala/Crysoupolis-Elev 5m
Απόσταση από meteothes.gr: ΑΒΑ 144km
Ενημερώθηκε: 26/01/2021 10:50
Διάσπαρτα Nέφη
Διάσπαρτα Nέφη
 Ανεμος από ΒΑ
Ανεμος: ΒΑ 13 km/h
Θερμοκρασία: 12°C
Σημ. Δρόσου: 5°C
Υγρασία: 63%
Βαρόμετρο: 1004 hPa
Νέφωση: Διάσπαρτα Nέφη
Ορατότητα: 10 km
Λεπτομέρειες Νεφών: Διάσπαρτα Nέφη 762 m
2021/01/26 08:50 LGKV 260850Z 05007KT 9999 FEW025 12/05 Q1004
 
LGSK - Skiathos Island-Elev 15m
Απόσταση από meteothes.gr: ΝΝΑ 168km
Ενημερώθηκε: 25/01/2021 16:50
ΜΗ Ενημερωμένο METAR!
Διάσπαρτα Nέφη
Διάσπαρτα Nέφη
 Ανεμος από Δ
Ανεμος: Δ 7 km/h
Θερμοκρασία: 17°C
Σημ. Δρόσου: 7°C
Υγρασία: 52%
Βαρόμετρο: 1007 hPa
Νέφωση: Διάσπαρτα Nέφη
Ορατότητα: 10 km
Λεπτομέρειες Νεφών: Διάσπαρτα Nέφη 762 m
2021/01/25 14:50 LGSK 251450Z 27004KT 9999 FEW025 17/07 Q1007
LGLM - Limnos Island-Elev 5m
Απόσταση από meteothes.gr: ΑΝΑ 210km
Ενημερώθηκε: 26/01/2021 10:50
Μερικώς νεφελώδης
Μερικώς νεφελώδης
 Ανεμος από ΝΝΔ
Ανεμος: ΝΝΔ 22 km/h
Θερμοκρασία: 16°C
Σημ. Δρόσου: 10°C
Υγρασία: 68%
Βαρόμετρο: 1005 hPa
Νέφωση: Μερικώς νεφελώδης
Ορατότητα: 10 km
Λεπτομέρειες Νεφών: Μερικώς νεφελώδης 762 m
2021/01/26 08:50 LGLM 260850Z 20012KT 9999 SCT025 16/10 Q1005
 
LGMT - Mitilini Island-Elev 17m
Απόσταση από meteothes.gr: ΑΝΑ 358km
Ενημερώθηκε: 26/01/2021 10:50
Μερικώς νεφελώδης
Μερικώς νεφελώδης
 Ανεμος από ΝΝΔ
Ανεμος: ΝΝΔ 31 km/h, Ριπή: 56 km/h
Θερμοκρασία: 16°C
Σημ. Δρόσου: 10°C
Υγρασία: 68%
Βαρόμετρο: 1009 hPa
Νέφωση: Μερικώς νεφελώδης
Ορατότητα: 10 km
Λεπτομέρειες Νεφών: Μερικώς νεφελώδης 762 m
2021/01/26 08:50 LGMT 260850Z 20017G30KT 9999 SCT025 16/10 Q1009
LGSY - Skiros Island-Elev 15m
Απόσταση από meteothes.gr: ΝΑ 227km
Ενημερώθηκε: 26/01/2021 06:50
ΜΗ Ενημερωμένο METAR!
Αίθριος
Αίθριος
 Ανεμος από Ν
Ανεμος: Ν 30 km/h, Ριπή: 48 km/h
Θερμοκρασία: 14°C
Σημ. Δρόσου: 11°C
Υγρασία: 82%
Βαρόμετρο: 1006 hPa
Συνθήκες: Αίθριος
Ορατότητα: πάνω από 10 km
2021/01/26 04:50 LGSY 260450Z 19016G26KT CAVOK 14/11 Q1006 RMK BKN080 BKN180 BLU
 
LGKZ - Kozani-Elev 628m
Απόσταση από meteothes.gr: ΔΝΔ 102km
Ενημερώθηκε: 26/01/2021 10:50
Κυρίως νεφελώδης
Κυρίως νεφελώδης
 Ανεμος από Ν
Ανεμος: Ν 15 km/h
Θερμοκρασία: 9°C
Αίσθηση Ψύχρας: 7°C
Σημ. Δρόσου: 0°C
Υγρασία: 54%
Βαρόμετρο: 1003 hPa
Νέφωση: Κυρίως νεφελώδης
Ορατότητα: 10 km
Λεπτομέρειες Νεφών: Μερικώς νεφελώδης 762 m
Κυρίως νεφελώδης 2438 m
2021/01/26 08:50 LGKZ 260850Z 19008KT 9999 SCT025 BKN080 09/00 Q1003
LGIO - Ioannina-Elev 476m
Απόσταση από meteothes.gr: ΔΝΔ 209km
Ενημερώθηκε: 26/01/2021 10:50
Ασθενής βροχή, Συννεφιά
Ασθενής βροχή, Συννεφιά
 Ανεμος από Ν
Ανεμος: Ν 6 km/h
Θερμοκρασία: 8°C
Σημ. Δρόσου: 7°C
Υγρασία: 93%
Βαρόμετρο: 1004 hPa
Συνθήκες: Ασθενής βροχή
Νέφωση: Συννεφιά
Ορατότητα: 7 km
Λεπτομέρειες Νεφών: Διάσπαρτα Nέφη 457 m
Κυρίως νεφελώδης 762 m
Συννεφιά 2438 m
2021/01/26 08:50 LGIO 260850Z 17003KT 7000 -RA FEW015 BKN025 OVC080 08/07 Q1004
 
LGZA - Zakinthos-Elev 3m
Απόσταση από meteothes.gr: ΝΝΔ 367km
Ενημερώθηκε: 26/01/2021 10:50
Κυρίως νεφελώδης
Κυρίως νεφελώδης
 Ανεμος από Ν
Ανεμος: Ν 28 km/h
Θερμοκρασία: 16°C
Σημ. Δρόσου: 13°C
Υγρασία: 83%
Βαρόμετρο: 1007 hPa
Νέφωση: Κυρίως νεφελώδης
Ορατότητα: 10 km
Λεπτομέρειες Νεφών: Μερικώς νεφελώδης 488 m
Κυρίως νεφελώδης 549 m
Κυρίως νεφελώδης 2134 m
2021/01/26 08:50 LGZA 260850Z 19015KT 9999 SCT016 BKN018 BKN070 16/13 Q1007
LGKR - Corfu Island-Elev 2m
Απόσταση από meteothes.gr: ΔΝΔ 282km
Ενημερώθηκε: 26/01/2021 10:50
Ασθενής βροχή, Συννεφιά
Ασθενής βροχή, Συννεφιά
 Ανεμος από Δ
Ανεμος: Δ 6 km/h
Θερμοκρασία: 12°C
Σημ. Δρόσου: 11°C
Υγρασία: 94%
Βαρόμετρο: 1003 hPa
Συνθήκες: Ασθενής βροχή
Νέφωση: Συννεφιά
Ορατότητα: 10 km
Λεπτομέρειες Νεφών: Διάσπαρτα Nέφη 457 m
Κυρίως νεφελώδης 762 m
Συννεφιά 2134 m
2021/01/26 08:50 LGKR 260850Z 28003KT 9999 -RA FEW015 BKN025 OVC070 12/11 Q1003 NOSIG
 
LGSO - Syros Island-Elev 72m
Απόσταση από meteothes.gr: ΝΝΑ 397km
Ενημερώθηκε: 26/01/2021 10:50
Μερικώς νεφελώδης
Μερικώς νεφελώδης
 Ανεμος από ΝΔ
Ανεμος: ΝΔ 37 km/h, Ριπή: 56 km/h
Θερμοκρασία: 16°C
Σημ. Δρόσου: 10°C
Υγρασία: 68%
Βαρόμετρο: 1010 hPa
Νέφωση: Μερικώς νεφελώδης
Ορατότητα: 10 km
Λεπτομέρειες Νεφών: Διάσπαρτα Nέφη 366 m
Μερικώς νεφελώδης 549 m
2021/01/26 08:50 LGSO 260850Z 23020G30KT 9999 FEW012 SCT018 16/10 Q1010
LGMK - Mikonos Island-Elev 123m
Απόσταση από meteothes.gr: ΝΝΑ 412km
Ενημερώθηκε: 26/01/2021 10:50
Μερικώς νεφελώδης
Μερικώς νεφελώδης
 Ανεμος από Ν
Ανεμος: Ν 31 km/h, Ριπή: 50 km/h
Θερμοκρασία: 15°C
Σημ. Δρόσου: 9°C
Υγρασία: 68%
Βαρόμετρο: 1011 hPa
Νέφωση: Μερικώς νεφελώδης
Ορατότητα: 9 km
Λεπτομέρειες Νεφών: Μερικώς νεφελώδης 305 m
Μερικώς νεφελώδης 914 m
2021/01/26 08:50 LGMK 260850Z 19017G27KT 9000 SCT010 SCT030 15/09 Q1011
 
LGSR - Santorini Island-Elev 40m
Απόσταση από meteothes.gr: ΝΝΑ 520km
Ενημερώθηκε: 26/01/2021 10:50
Μερικώς νεφελώδης
Μερικώς νεφελώδης
 Ανεμος από ΝΑ
Ανεμος: ΝΑ 15 km/h
Θερμοκρασία: 16°C
Σημ. Δρόσου: 9°C
Υγρασία: 63%
Βαρόμετρο: 1013 hPa
Νέφωση: Μερικώς νεφελώδης
Ορατότητα: 10 km
Λεπτομέρειες Νεφών: Μερικώς νεφελώδης 610 m
2021/01/26 08:50 LGSR 260850Z 14008KT 9999 SCT020 16/09 Q1013
LGKL - Kalamata-Elev 8m
Απόσταση από meteothes.gr: Ν 405km
Ενημερώθηκε: 26/01/2021 10:50
Κυρίως νεφελώδης
Κυρίως νεφελώδης
 Ανεμος από ΝΝΑ
Ανεμος: ΝΝΑ 13 km/h
Θερμοκρασία: 16°C
Σημ. Δρόσου: 12°C
Υγρασία: 77%
Βαρόμετρο: 1010 hPa
Νέφωση: Κυρίως νεφελώδης
Ορατότητα: 10 km
Λεπτομέρειες Νεφών: Κυρίως νεφελώδης 762 m
Κυρίως νεφελώδης 2438 m
2021/01/26 08:50 LGKL 260850Z 16007KT 9999 BKN025 BKN080 16/12 Q1010
 
LGIR - Iraklion/Crete-Elev 5m
Απόσταση από meteothes.gr: ΝΝΑ 622km
Ενημερώθηκε: 26/01/2021 10:50
Κυρίως νεφελώδης
Κυρίως νεφελώδης
 Ανεμος από Ν
Ανεμος: Ν 48 km/h, Ριπή: 67 km/h
Θερμοκρασία: 16°C
Σημ. Δρόσου: 10°C
Υγρασία: 68%
Βαρόμετρο: 1012 hPa
Νέφωση: Κυρίως νεφελώδης
Ορατότητα: 10 km
Λεπτομέρειες Νεφών: Διάσπαρτα Nέφη 762 m
Κυρίως νεφελώδης 2438 m
2021/01/26 08:50 LGIR 260850Z 18026G36KT 9999 FEW025 BKN080 16/10 Q1012 NOSIG
LGRP - Rhodes-Elev 5m
Απόσταση από meteothes.gr: ΝΑ 649km
Ενημερώθηκε: 26/01/2021 10:50
Μερικώς νεφελώδης
Μερικώς νεφελώδης
 Ανεμος από ΝΝΔ
Ανεμος: ΝΝΔ 19 km/h, Ριπή: 37 km/h
Θερμοκρασία: 18°C
Σημ. Δρόσου: 13°C
Υγρασία: 73%
Βαρόμετρο: 1014 hPa
Νέφωση: Μερικώς νεφελώδης
Ορατότητα: 10 km
Λεπτομέρειες Νεφών: Διάσπαρτα Nέφη 366 m
Μερικώς νεφελώδης 549 m
2021/01/26 08:50 LGRP 260850Z 21010G20KT 120V260 9999 FEW012 SCT018 18/13 Q1014 WS ALL RWY NOSIG
 
LWOH - Ohrid/FYROM-Elev 761m
Απόσταση από meteothes.gr: ΔΒΔ 188km
Ενημερώθηκε: 26/01/2021 11:00
Ασθενής βροχή, Καταχνιά, Συννεφιά
Ασθενής βροχή, Καταχνιά, Συννεφιά
 Ανεμος από ΒΒΔ
Ανεμος: ΒΒΔ 6 km/h
Θερμοκρασία: 3°C
Σημ. Δρόσου: 2°C
Υγρασία: 93%
Βαρόμετρο: 1003 hPa
Συνθήκες: Ασθενής βροχή, Καταχνιά
Νέφωση: Συννεφιά
Ορατότητα: 5 km
Λεπτομέρειες Νεφών: Μερικώς νεφελώδης 610 m
Συννεφιά 1219 m
2021/01/26 09:00 LWOH 260900Z 34003KT 5000 -RA BR SCT020 OVC040 03/02 Q1003
LBSF - Sofia/Bulgaria-Elev 595m
Απόσταση από meteothes.gr: Β 227km
Ενημερώθηκε: 26/01/2021 11:00
Χιόνι, Συννεφιά
Χιόνι, Συννεφιά
 Ανεμος από Δ
Ανεμος: Δ 24 km/h
Θερμοκρασία: 0°C
Αίσθηση Ψύχρας: -6°C
Σημ. Δρόσου: 0°C
Υγρασία: 100%
Βαρόμετρο: 1005 hPa
Συνθήκες: Χιόνι
Νέφωση: Συννεφιά
Ορατότητα: 1 km
Λεπτομέρειες Νεφών: Συννεφιά 122 m
2021/01/26 09:00 LBSF 260900Z 27013KT 0700 R27/1300U SN OVC004 00/M00 Q1005 R99/29//95 NOSIG

(*) Μερικές αναφορές παρουσιάζουν λιγότερα στοιχεία γιατί οι αρχικές είναι ελλιπείς ή έχουν λάθος μορφοποίηση!